createdAt,value
2022-12-29T00:00:14.771Z,4.50
2022-12-29T00:02:41.759Z,4.50
2022-12-29T00:05:08.846Z,4.50
2022-12-29T00:07:35.864Z,4.50
2022-12-29T00:10:02.688Z,4.50
2022-12-29T00:12:30.759Z,4.50
2022-12-29T00:14:57.483Z,4.50
2022-12-29T00:17:24.268Z,4.50
2022-12-29T00:19:50.997Z,4.50
2022-12-29T00:22:17.750Z,4.40
2022-12-29T00:24:45.235Z,4.40
2022-12-29T00:27:13.506Z,4.40
2022-12-29T00:29:42.298Z,4.40
2022-12-29T00:32:10.599Z,4.40
2022-12-29T00:34:37.459Z,4.40
2022-12-29T00:37:04.169Z,4.40
2022-12-29T00:39:30.863Z,4.40
2022-12-29T00:42:03.261Z,4.30
2022-12-29T00:44:30.026Z,4.30
2022-12-29T00:46:58.131Z,4.40
2022-12-29T00:49:24.857Z,4.40
2022-12-29T00:51:51.860Z,4.40
2022-12-29T00:54:19.246Z,4.40
2022-12-29T00:56:47.114Z,4.40
2022-12-29T00:59:14.019Z,4.40
2022-12-29T01:01:41.315Z,4.40
2022-12-29T01:04:10.723Z,4.40
2022-12-29T01:06:39.096Z,4.40
2022-12-29T01:09:06.530Z,4.40
2022-12-29T01:11:33.225Z,4.40
2022-12-29T01:14:00.105Z,4.40
2022-12-29T01:16:26.892Z,4.40
2022-12-29T01:18:53.627Z,4.40
2022-12-29T01:21:22.028Z,4.40
2022-12-29T01:23:48.861Z,4.50
2022-12-29T01:26:17.338Z,4.50
2022-12-29T01:28:45.262Z,4.50
2022-12-29T01:31:13.946Z,4.50
2022-12-29T01:33:41.266Z,4.50
2022-12-29T01:36:10.574Z,4.50
2022-12-29T01:38:39.336Z,4.50
2022-12-29T01:41:07.783Z,4.50
2022-12-29T01:43:45.210Z,4.50
2022-12-29T01:46:23.921Z,4.60
2022-12-29T01:48:53.643Z,4.50
2022-12-29T01:51:22.499Z,4.50
2022-12-29T01:53:51.126Z,4.50
2022-12-29T01:56:20.599Z,4.60
2022-12-29T01:58:54.716Z,4.60
2022-12-29T02:01:22.250Z,4.60
2022-12-29T02:03:50.301Z,4.70
2022-12-29T02:06:20.801Z,4.70
2022-12-29T02:08:51.103Z,4.70
2022-12-29T02:11:18.088Z,4.70
2022-12-29T02:13:45.095Z,4.70
2022-12-29T02:16:27.549Z,4.70
2022-12-29T02:19:08.842Z,4.70
2022-12-29T02:21:59.184Z,4.70
2022-12-29T02:24:52.146Z,4.80
2022-12-29T02:27:41.208Z,4.70
2022-12-29T02:30:16.452Z,4.70
2022-12-29T02:32:53.915Z,4.80
2022-12-29T02:35:29.090Z,4.80
2022-12-29T02:38:03.632Z,4.80
2022-12-29T02:40:38.149Z,4.80
2022-12-29T02:43:19.825Z,4.80
2022-12-29T02:45:52.561Z,4.80
2022-12-29T02:48:26.400Z,4.80
2022-12-29T02:51:00.179Z,4.80
2022-12-29T02:53:29.062Z,4.80
2022-12-29T02:55:55.796Z,4.80
2022-12-29T02:58:23.887Z,4.80
2022-12-29T03:01:11.623Z,4.80
2022-12-29T03:03:50.385Z,4.90
2022-12-29T03:06:32.299Z,4.90
2022-12-29T03:09:18.918Z,4.90
2022-12-29T03:11:54.020Z,4.90
2022-12-29T03:14:31.967Z,4.90
2022-12-29T03:17:03.718Z,4.90
2022-12-29T03:19:35.920Z,4.90
2022-12-29T03:22:05.579Z,4.90
2022-12-29T03:24:35.759Z,4.90
2022-12-29T03:27:05.270Z,4.90
2022-12-29T03:29:36.681Z,4.90
2022-12-29T03:32:05.599Z,4.90
2022-12-29T03:34:35.264Z,4.90
2022-12-29T03:37:07.455Z,4.90
2022-12-29T03:39:34.321Z,4.90
2022-12-29T03:42:05.098Z,4.90
2022-12-29T03:44:37.394Z,4.90
2022-12-29T03:47:04.661Z,5.00
2022-12-29T03:49:32.732Z,5.00
2022-12-29T03:51:59.472Z,5.00
2022-12-29T03:54:27.099Z,5.00
2022-12-29T03:56:53.844Z,5.00
2022-12-29T03:59:20.556Z,5.00
2022-12-29T04:01:47.404Z,5.00
2022-12-29T04:04:14.606Z,5.00
2022-12-29T04:06:42.765Z,5.00
2022-12-29T04:09:10.876Z,5.00
2022-12-29T04:11:37.656Z,5.00
2022-12-29T04:14:04.393Z,5.00
2022-12-29T04:16:31.272Z,5.00
2022-12-29T04:18:58.029Z,5.00
2022-12-29T04:21:24.837Z,5.10
2022-12-29T04:23:52.890Z,5.10
2022-12-29T04:26:19.702Z,5.10
2022-12-29T04:28:46.667Z,5.10
2022-12-29T04:31:13.440Z,5.10
2022-12-29T04:33:40.257Z,5.10
2022-12-29T04:36:07.504Z,5.10
2022-12-29T04:38:34.499Z,5.10
2022-12-29T04:41:03.116Z,5.10
2022-12-29T04:43:30.107Z,5.10
2022-12-29T04:45:56.955Z,5.10
2022-12-29T04:48:23.859Z,5.10
2022-12-29T04:50:50.811Z,5.10
2022-12-29T04:53:18.685Z,5.10
2022-12-29T04:55:48.930Z,5.10
2022-12-29T04:58:22.334Z,5.10
2022-12-29T05:00:49.639Z,5.10
2022-12-29T05:03:16.634Z,5.10
2022-12-29T05:05:45.212Z,5.10
2022-12-29T05:08:12.005Z,5.10
2022-12-29T05:10:38.725Z,5.10
2022-12-29T05:13:05.523Z,5.10
2022-12-29T05:15:33.572Z,5.20
2022-12-29T05:18:00.298Z,5.20
2022-12-29T05:20:27.149Z,5.10
2022-12-29T05:22:53.909Z,5.20
2022-12-29T05:25:20.655Z,5.20
2022-12-29T05:27:47.541Z,5.20
2022-12-29T05:30:14.275Z,5.20
2022-12-29T05:32:42.419Z,5.20
2022-12-29T05:35:09.793Z,5.20
2022-12-29T05:37:36.551Z,5.20
2022-12-29T05:40:04.033Z,5.20
2022-12-29T05:42:30.899Z,5.20
2022-12-29T05:44:57.987Z,5.20
2022-12-29T05:47:24.701Z,5.20
2022-12-29T05:49:52.810Z,5.20
2022-12-29T05:52:19.593Z,5.20
2022-12-29T05:54:46.342Z,5.20
2022-12-29T05:57:13.097Z,5.20
2022-12-29T05:59:39.814Z,5.20
2022-12-29T06:02:06.640Z,5.20
2022-12-29T06:04:34.088Z,5.30
2022-12-29T06:07:02.169Z,5.30
2022-12-29T06:09:28.896Z,5.30
2022-12-29T06:11:55.586Z,5.20
2022-12-29T06:14:22.347Z,5.30
2022-12-29T06:16:49.116Z,5.30
2022-12-29T06:19:15.950Z,5.30
2022-12-29T06:21:43.999Z,5.30
2022-12-29T06:24:12.105Z,5.30
2022-12-29T06:26:38.853Z,5.30
2022-12-29T06:29:05.630Z,5.30
2022-12-29T06:31:32.407Z,5.30
2022-12-29T06:34:01.318Z,5.30
2022-12-29T06:36:31.771Z,5.30
2022-12-29T06:38:58.494Z,5.30
2022-12-29T06:41:32.040Z,5.30
2022-12-29T06:43:59.263Z,5.30
2022-12-29T06:46:26.066Z,5.30
2022-12-29T06:48:52.884Z,5.30
2022-12-29T06:51:19.748Z,5.30
2022-12-29T06:53:46.452Z,5.30
2022-12-29T06:56:13.179Z,5.30
2022-12-29T06:58:41.347Z,5.30
2022-12-29T07:01:08.135Z,5.30
2022-12-29T07:03:34.937Z,5.40
2022-12-29T07:06:01.779Z,5.40
2022-12-29T07:08:28.507Z,5.30
2022-12-29T07:10:55.212Z,5.30
2022-12-29T07:13:21.964Z,5.40
2022-12-29T07:15:50.063Z,5.40
2022-12-29T07:18:16.771Z,5.40
2022-12-29T07:20:44.082Z,5.40
2022-12-29T07:23:10.951Z,5.40
2022-12-29T07:25:37.759Z,5.40
2022-12-29T07:28:05.048Z,5.40
2022-12-29T07:30:31.805Z,5.40
2022-12-29T07:32:59.929Z,5.50
2022-12-29T07:35:26.650Z,5.50
2022-12-29T07:37:53.347Z,5.50
2022-12-29T07:40:20.091Z,5.40
2022-12-29T07:42:46.814Z,5.50
2022-12-29T07:45:13.530Z,5.40
2022-12-29T07:47:40.325Z,5.50
2022-12-29T07:50:08.949Z,5.50
2022-12-29T07:52:35.665Z,5.50
2022-12-29T07:55:02.473Z,5.50
2022-12-29T07:57:31.990Z,5.50
2022-12-29T07:59:59.148Z,5.50
2022-12-29T08:02:26.174Z,5.50
2022-12-29T08:04:53.011Z,5.50
2022-12-29T08:07:21.166Z,5.60
2022-12-29T08:09:48.030Z,5.50
2022-12-29T08:12:14.781Z,5.50
2022-12-29T08:14:44.721Z,5.60
2022-12-29T08:17:11.435Z,5.50
2022-12-29T08:19:38.798Z,5.60
2022-12-29T08:22:05.510Z,5.60
2022-12-29T08:24:33.598Z,5.60
2022-12-29T08:27:06.913Z,5.60
2022-12-29T08:29:38.780Z,5.60
2022-12-29T08:32:05.533Z,5.60
2022-12-29T08:34:32.635Z,5.70
2022-12-29T08:36:59.415Z,5.70
2022-12-29T08:39:26.311Z,5.60
2022-12-29T08:41:54.469Z,5.70
2022-12-29T08:44:21.790Z,5.70
2022-12-29T08:46:48.562Z,5.70
2022-12-29T08:49:15.437Z,5.70
2022-12-29T08:51:42.182Z,5.70
2022-12-29T08:54:08.952Z,5.70
2022-12-29T08:56:35.664Z,5.70
2022-12-29T08:59:03.745Z,5.80
2022-12-29T09:01:30.598Z,5.80
2022-12-29T09:04:14.917Z,5.80
2022-12-29T09:06:42.918Z,5.80
2022-12-29T09:09:09.931Z,5.80
2022-12-29T09:11:36.696Z,5.90
2022-12-29T09:14:04.920Z,5.90
2022-12-29T09:16:31.868Z,5.90
2022-12-29T09:18:58.922Z,5.90
2022-12-29T09:21:25.678Z,5.90
2022-12-29T09:23:52.464Z,5.90
2022-12-29T09:26:19.201Z,5.90
2022-12-29T09:28:46.133Z,5.90
2022-12-29T09:31:15.025Z,6.00
2022-12-29T09:33:41.788Z,6.00
2022-12-29T09:36:09.695Z,6.00
2022-12-29T09:38:36.525Z,6.00
2022-12-29T09:41:13.759Z,6.00
2022-12-29T09:43:57.294Z,6.00
2022-12-29T09:46:27.895Z,6.00
2022-12-29T09:49:04.968Z,6.00
2022-12-29T09:51:33.621Z,6.10
2022-12-29T09:54:05.071Z,6.10
2022-12-29T09:56:31.804Z,6.10
2022-12-29T09:59:03.259Z,6.10
2022-12-29T10:01:35.085Z,6.10
2022-12-29T10:04:02.651Z,6.10
2022-12-29T10:06:45.512Z,6.20
2022-12-29T10:09:35.317Z,6.20
2022-12-29T10:12:17.604Z,6.20
2022-12-29T10:15:02.563Z,6.20
2022-12-29T10:18:05.244Z,6.20
2022-12-29T10:20:38.703Z,6.30
2022-12-29T10:23:20.002Z,6.30
2022-12-29T10:25:47.161Z,6.30
2022-12-29T10:28:22.077Z,6.30
2022-12-29T10:30:50.213Z,6.30
2022-12-29T10:33:21.133Z,6.40
2022-12-29T10:35:48.608Z,6.40
2022-12-29T10:38:23.819Z,6.40
2022-12-29T10:40:54.355Z,6.40
2022-12-29T10:43:25.899Z,6.50
2022-12-29T10:45:53.836Z,6.50
2022-12-29T10:48:30.061Z,6.50
2022-12-29T10:51:02.291Z,6.50
2022-12-29T10:53:36.280Z,6.60
2022-12-29T10:56:05.459Z,6.60
2022-12-29T10:58:32.213Z,6.60
2022-12-29T11:00:59.195Z,6.60
2022-12-29T11:03:44.215Z,6.70
2022-12-29T11:06:14.651Z,6.70
2022-12-29T11:08:49.081Z,6.70
2022-12-29T11:11:24.498Z,6.70
2022-12-29T11:13:56.431Z,6.70
2022-12-29T11:16:30.305Z,6.70
2022-12-29T11:18:58.809Z,6.70
2022-12-29T11:21:31.274Z,6.80
2022-12-29T11:23:59.764Z,6.80
2022-12-29T11:26:31.966Z,6.80
2022-12-29T11:29:21.877Z,6.80
2022-12-29T11:31:50.103Z,6.80
2022-12-29T11:34:23.068Z,6.80
2022-12-29T11:36:53.632Z,6.80
2022-12-29T11:39:29.991Z,6.80
2022-12-29T11:41:57.507Z,6.90
2022-12-29T11:44:24.964Z,6.90
2022-12-29T11:46:53.415Z,6.90
2022-12-29T11:49:24.550Z,6.90
2022-12-29T11:51:53.609Z,6.90
2022-12-29T11:54:23.651Z,7.00
2022-12-29T11:56:51.498Z,7.00
2022-12-29T11:59:41.876Z,7.00
2022-12-29T12:02:42.482Z,7.00
2022-12-29T12:05:23.012Z,7.10
2022-12-29T12:07:55.204Z,7.10
2022-12-29T12:10:27.591Z,7.10
2022-12-29T12:13:02.943Z,7.10
2022-12-29T12:15:39.166Z,7.20
2022-12-29T12:18:15.003Z,7.20
2022-12-29T12:20:50.851Z,7.20
2022-12-29T12:23:33.001Z,7.30
2022-12-29T12:26:05.188Z,7.30
2022-12-29T12:28:38.796Z,7.30
2022-12-29T12:31:12.172Z,7.30
2022-12-29T12:33:43.710Z,7.40
2022-12-29T12:36:38.427Z,7.40
2022-12-29T12:39:11.966Z,7.40
2022-12-29T12:41:48.115Z,7.40
2022-12-29T12:44:24.246Z,7.40
2022-12-29T12:47:08.824Z,7.50
2022-12-29T12:50:16.035Z,7.40
2022-12-29T12:52:59.567Z,7.50
2022-12-29T12:55:42.730Z,7.50
2022-12-29T12:58:19.720Z,7.50
2022-12-29T13:00:55.767Z,7.50
2022-12-29T13:03:32.479Z,7.50
2022-12-29T13:06:12.478Z,7.50
2022-12-29T13:09:22.001Z,7.50
2022-12-29T13:12:02.569Z,7.50
2022-12-29T13:14:42.251Z,7.60
2022-12-29T13:17:16.378Z,7.60
2022-12-29T13:19:49.153Z,7.50
2022-12-29T13:22:22.571Z,7.60
2022-12-29T13:25:11.583Z,7.60
2022-12-29T13:27:45.408Z,7.60
2022-12-29T13:30:16.650Z,7.60
2022-12-29T13:32:53.075Z,7.60
2022-12-29T13:35:38.122Z,7.60
2022-12-29T13:38:10.155Z,7.60
2022-12-29T13:40:44.535Z,7.60
2022-12-29T13:43:13.201Z,7.60
2022-12-29T13:45:41.574Z,7.70
2022-12-29T13:48:16.633Z,7.60
2022-12-29T13:50:48.460Z,7.60
2022-12-29T13:53:20.534Z,7.60
2022-12-29T13:55:55.125Z,7.60
2022-12-29T13:58:28.493Z,7.70
2022-12-29T14:01:01.637Z,7.70
2022-12-29T14:03:47.435Z,7.70
2022-12-29T14:06:21.568Z,7.70
2022-12-29T14:08:49.615Z,7.70
2022-12-29T14:11:20.969Z,7.70
2022-12-29T14:13:49.017Z,7.70
2022-12-29T14:16:28.391Z,7.70
2022-12-29T14:18:56.761Z,7.70
2022-12-29T14:21:26.171Z,7.70
2022-12-29T14:23:52.899Z,7.70
2022-12-29T14:26:35.234Z,7.70
2022-12-29T14:29:37.519Z,7.80
2022-12-29T14:32:37.532Z,7.80
2022-12-29T14:35:41.287Z,7.80
2022-12-29T14:38:19.794Z,7.80
2022-12-29T14:40:48.283Z,7.80
2022-12-29T14:43:22.348Z,7.80
2022-12-29T14:45:56.250Z,7.80
2022-12-29T14:48:39.017Z,7.80
2022-12-29T14:51:29.809Z,7.80
2022-12-29T14:53:56.522Z,7.80
2022-12-29T14:56:27.131Z,7.80
2022-12-29T14:58:58.256Z,7.80
2022-12-29T15:01:31.886Z,7.80
2022-12-29T15:04:01.549Z,7.90
2022-12-29T15:06:31.216Z,7.80
2022-12-29T15:09:04.268Z,7.80
2022-12-29T15:11:44.999Z,7.90
2022-12-29T15:14:49.501Z,7.90
2022-12-29T15:17:25.871Z,7.90
2022-12-29T15:19:53.082Z,7.90
2022-12-29T15:22:20.319Z,7.90
2022-12-29T15:24:47.243Z,7.90
2022-12-29T15:27:16.338Z,7.90
2022-12-29T15:29:46.891Z,7.90
2022-12-29T15:32:20.167Z,7.90
2022-12-29T15:34:48.533Z,7.90
2022-12-29T15:37:24.389Z,7.90
2022-12-29T15:39:52.091Z,7.90
2022-12-29T15:42:45.731Z,7.90
2022-12-29T15:45:15.280Z,7.90
2022-12-29T15:47:45.059Z,7.90
2022-12-29T15:50:22.251Z,7.90
2022-12-29T15:52:49.300Z,7.90
2022-12-29T15:55:22.284Z,7.90
2022-12-29T15:57:49.134Z,7.90
2022-12-29T16:00:25.685Z,7.90
2022-12-29T16:02:53.530Z,7.90
2022-12-29T16:05:20.778Z,7.90
2022-12-29T16:07:55.853Z,7.90
2022-12-29T16:10:28.174Z,7.90
2022-12-29T16:12:55.053Z,7.90
2022-12-29T16:15:21.975Z,8.00
2022-12-29T16:17:53.773Z,7.90
2022-12-29T16:20:23.224Z,8.00
2022-12-29T16:22:53.955Z,7.90
2022-12-29T16:25:25.496Z,8.00
2022-12-29T16:27:53.294Z,8.00
2022-12-29T16:30:26.561Z,8.00
2022-12-29T16:33:01.069Z,8.00
2022-12-29T16:35:29.182Z,8.00
2022-12-29T16:38:13.906Z,8.00
2022-12-29T16:40:51.053Z,8.00
2022-12-29T16:43:22.723Z,8.00
2022-12-29T16:46:17.633Z,8.00
2022-12-29T16:48:52.938Z,8.00
2022-12-29T16:51:25.551Z,8.00
2022-12-29T16:53:54.556Z,8.00
2022-12-29T16:56:23.977Z,8.00
2022-12-29T16:58:53.359Z,8.00
2022-12-29T17:01:20.632Z,8.00
2022-12-29T17:03:52.315Z,8.00
2022-12-29T17:06:21.105Z,8.00
2022-12-29T17:08:48.673Z,8.00
2022-12-29T17:11:28.393Z,8.00
2022-12-29T17:13:55.136Z,8.00
2022-12-29T17:16:21.883Z,8.10
2022-12-29T17:18:50.085Z,8.10
2022-12-29T17:21:16.790Z,8.10
2022-12-29T17:23:43.596Z,8.10
2022-12-29T17:26:11.685Z,8.10
2022-12-29T17:28:38.787Z,8.10
2022-12-29T17:31:07.496Z,8.10
2022-12-29T17:33:38.047Z,8.10
2022-12-29T17:36:06.778Z,8.10
2022-12-29T17:38:35.935Z,8.10
2022-12-29T17:41:02.877Z,8.10
2022-12-29T17:43:36.345Z,8.10
2022-12-29T17:46:06.957Z,8.10
2022-12-29T17:48:33.780Z,8.10
2022-12-29T17:51:00.538Z,8.10
2022-12-29T17:53:30.312Z,8.10
2022-12-29T17:55:57.144Z,8.10
2022-12-29T17:58:26.199Z,8.10
2022-12-29T18:00:55.480Z,8.10
2022-12-29T18:03:26.244Z,8.20
2022-12-29T18:05:53.686Z,8.10
2022-12-29T18:08:20.591Z,8.10
2022-12-29T18:10:50.811Z,8.10
2022-12-29T18:13:21.158Z,8.10
2022-12-29T18:15:48.437Z,8.20
2022-12-29T18:18:17.700Z,8.20
2022-12-29T18:20:46.255Z,8.10
2022-12-29T18:23:19.272Z,8.20
2022-12-29T18:25:51.812Z,8.20
2022-12-29T18:28:18.562Z,8.20
2022-12-29T18:30:45.914Z,8.20
2022-12-29T18:33:21.304Z,8.20
2022-12-29T18:35:55.126Z,8.20
2022-12-29T18:38:22.122Z,8.20
2022-12-29T18:40:50.539Z,8.20
2022-12-29T18:43:19.051Z,8.20
2022-12-29T18:45:46.509Z,8.20
2022-12-29T18:48:13.943Z,8.20
2022-12-29T18:50:41.020Z,8.20
2022-12-29T18:53:15.169Z,8.20
2022-12-29T18:55:42.000Z,8.20
2022-12-29T18:58:10.250Z,8.20
2022-12-29T19:00:39.803Z,8.20
2022-12-29T19:03:07.024Z,8.20
2022-12-29T19:05:37.686Z,8.20
2022-12-29T19:08:05.504Z,8.20
2022-12-29T19:10:32.716Z,8.20
2022-12-29T19:13:00.085Z,8.20
2022-12-29T19:15:31.667Z,8.20
2022-12-29T19:18:41.913Z,8.20
2022-12-29T19:20:50.733Z,8.20
2022-12-29T19:23:20.019Z,8.20
2022-12-29T19:25:47.719Z,8.20
2022-12-29T19:28:17.974Z,8.30
2022-12-29T19:30:52.289Z,8.20
2022-12-29T19:33:20.992Z,8.20
2022-12-29T19:35:48.836Z,8.30
2022-12-29T19:38:16.495Z,8.20
2022-12-29T19:40:44.713Z,8.20
2022-12-29T19:43:11.818Z,8.30
2022-12-29T19:45:39.361Z,8.30
2022-12-29T19:48:09.139Z,8.30
2022-12-29T19:50:36.042Z,8.30
2022-12-29T19:53:05.702Z,8.30
2022-12-29T19:55:32.964Z,8.30
2022-12-29T19:58:01.284Z,8.30
2022-12-29T20:00:28.263Z,8.30
2022-12-29T20:02:55.513Z,8.30
2022-12-29T20:05:24.432Z,8.30
2022-12-29T20:07:51.270Z,8.40
2022-12-29T20:10:18.430Z,8.30
2022-12-29T20:12:45.201Z,8.30
2022-12-29T20:15:12.432Z,8.30
2022-12-29T20:18:11.832Z,8.30
2022-12-29T20:20:27.487Z,8.30
2022-12-29T20:22:54.426Z,8.40
2022-12-29T20:28:08.258Z,8.40
2022-12-29T20:30:35.814Z,8.40
2022-12-29T20:33:07.790Z,8.40
2022-12-29T20:35:36.992Z,8.40
2022-12-29T20:38:04.374Z,8.40
2022-12-29T20:40:31.554Z,8.40
2022-12-29T20:42:58.496Z,8.40
2022-12-29T20:45:25.658Z,8.40
2022-12-29T20:47:52.636Z,8.40
2022-12-29T20:50:19.541Z,8.40
2022-12-29T20:52:47.823Z,8.40
2022-12-29T20:55:14.697Z,8.40
2022-12-29T21:00:28.896Z,8.40
2022-12-29T21:02:55.943Z,8.40
2022-12-29T21:05:24.416Z,8.40
2022-12-29T21:07:53.849Z,8.40
2022-12-29T21:10:21.502Z,8.40
2022-12-29T21:12:48.810Z,8.40
2022-12-29T21:15:15.796Z,8.40
2022-12-29T21:17:42.852Z,8.40
2022-12-29T21:20:11.749Z,8.40
2022-12-29T21:22:38.569Z,8.40
2022-12-29T21:25:07.416Z,8.40
2022-12-29T21:27:34.467Z,8.40
2022-12-29T21:30:01.426Z,8.40
2022-12-29T21:32:28.278Z,8.40
2022-12-29T21:34:55.199Z,8.40
2022-12-29T21:37:23.867Z,8.40
2022-12-29T21:39:51.012Z,8.40
2022-12-29T21:42:19.213Z,8.40
2022-12-29T21:44:46.479Z,8.40
2022-12-29T21:47:13.437Z,8.40
2022-12-29T21:49:40.336Z,8.40
2022-12-29T21:52:07.142Z,8.50
2022-12-29T21:54:34.196Z,8.40
2022-12-29T21:57:01.142Z,8.50
2022-12-29T21:59:29.357Z,8.40
2022-12-29T22:01:56.551Z,8.50
2022-12-29T22:04:25.487Z,8.40
2022-12-29T22:06:52.731Z,8.40
2022-12-29T22:09:19.695Z,8.40
2022-12-29T22:11:46.511Z,8.40
2022-12-29T22:14:13.731Z,8.50
2022-12-29T22:16:42.148Z,8.40
2022-12-29T22:19:09.108Z,8.50
2022-12-29T22:21:35.995Z,8.50
2022-12-29T22:24:02.882Z,8.50
2022-12-29T22:26:29.757Z,8.50
2022-12-29T22:28:57.920Z,8.40
2022-12-29T22:31:26.380Z,8.50
2022-12-29T22:33:55.930Z,8.50
2022-12-29T22:36:24.772Z,8.50
2022-12-29T22:38:51.735Z,8.50
2022-12-29T22:41:18.887Z,8.50
2022-12-29T22:43:45.918Z,8.50
2022-12-29T22:46:13.916Z,8.50
2022-12-29T22:48:41.045Z,8.50
2022-12-29T22:51:09.160Z,8.50
2022-12-29T22:53:37.038Z,8.50
2022-12-29T22:56:06.294Z,8.50
2022-12-29T22:58:33.183Z,8.50
2022-12-29T23:01:00.639Z,8.50
2022-12-29T23:03:28.892Z,8.50
2022-12-29T23:05:57.180Z,8.50
2022-12-29T23:08:25.480Z,8.50
2022-12-29T23:10:52.327Z,8.50
2022-12-29T23:13:19.342Z,8.50
2022-12-29T23:15:46.964Z,8.50
2022-12-29T23:18:14.060Z,8.50
2022-12-29T23:20:42.678Z,8.50
2022-12-29T23:23:09.759Z,8.50
2022-12-29T23:25:38.463Z,8.50
2022-12-29T23:28:07.287Z,8.50
2022-12-29T23:30:34.392Z,8.50
2022-12-29T23:33:01.137Z,8.50
2022-12-29T23:35:28.020Z,8.50
2022-12-29T23:37:54.759Z,8.50
2022-12-29T23:40:21.568Z,8.50
2022-12-29T23:42:49.712Z,8.50
2022-12-29T23:45:16.588Z,8.50
2022-12-29T23:47:43.357Z,8.50
2022-12-29T23:50:10.145Z,8.50
2022-12-29T23:52:36.874Z,8.50
2022-12-29T23:55:04.142Z,8.40
2022-12-29T23:57:30.895Z,8.40
2022-12-29T23:59:59.116Z,8.40
